sensor_id;sensor_type;location;lat;lon;timestamp;P1;durP1;ratioP1;P2;durP2;ratioP2
48596;SDS011;34382;43.160;24.148;2024-02-23T00:01:27;14.77;;;9.57;;
48596;SDS011;34382;43.160;24.148;2024-02-23T00:02:59;13.77;;;7.57;;
48596;SDS011;34382;43.160;24.148;2024-02-23T00:04:31;12.20;;;6.55;;
48596;SDS011;34382;43.160;24.148;2024-02-23T00:06:04;13.10;;;7.22;;
48596;SDS011;34382;43.160;24.148;2024-02-23T00:07:36;13.93;;;6.77;;
48596;SDS011;34382;43.160;24.148;2024-02-23T00:09:08;12.48;;;7.13;;
48596;SDS011;34382;43.160;24.148;2024-02-23T00:10:41;13.82;;;6.88;;
48596;SDS011;34382;43.160;24.148;2024-02-23T00:12:13;12.10;;;7.10;;
48596;SDS011;34382;43.160;24.148;2024-02-23T00:13:46;11.73;;;6.65;;
48596;SDS011;34382;43.160;24.148;2024-02-23T00:15:18;13.07;;;7.50;;
48596;SDS011;34382;43.160;24.148;2024-02-23T00:16:50;14.57;;;7.22;;
48596;SDS011;34382;43.160;24.148;2024-02-23T00:18:23;12.25;;;6.53;;
48596;SDS011;34382;43.160;24.148;2024-02-23T00:19:55;15.38;;;6.85;;
48596;SDS011;34382;43.160;24.148;2024-02-23T00:21:27;12.60;;;6.50;;
48596;SDS011;34382;43.160;24.148;2024-02-23T00:23:00;12.32;;;7.05;;
48596;SDS011;34382;43.160;24.148;2024-02-23T00:24:33;10.68;;;6.25;;
48596;SDS011;34382;43.160;24.148;2024-02-23T00:26:05;13.82;;;8.32;;
48596;SDS011;34382;43.160;24.148;2024-02-23T00:27:37;14.60;;;7.78;;
48596;SDS011;34382;43.160;24.148;2024-02-23T00:29:11;15.18;;;8.70;;
48596;SDS011;34382;43.160;24.148;2024-02-23T00:30:43;14.25;;;8.02;;
48596;SDS011;34382;43.160;24.148;2024-02-23T00:32:15;15.27;;;8.82;;
48596;SDS011;34382;43.160;24.148;2024-02-23T00:33:48;17.95;;;9.35;;
48596;SDS011;34382;43.160;24.148;2024-02-23T00:35:20;17.92;;;10.02;;
48596;SDS011;34382;43.160;24.148;2024-02-23T00:36:53;16.08;;;8.90;;
48596;SDS011;34382;43.160;24.148;2024-02-23T00:38:25;15.82;;;9.38;;
48596;SDS011;34382;43.160;24.148;2024-02-23T00:39:57;13.65;;;8.43;;
48596;SDS011;34382;43.160;24.148;2024-02-23T00:41:30;18.05;;;9.85;;
48596;SDS011;34382;43.160;24.148;2024-02-23T00:43:02;15.55;;;8.82;;
48596;SDS011;34382;43.160;24.148;2024-02-23T00:44:34;15.27;;;8.63;;
48596;SDS011;34382;43.160;24.148;2024-02-23T00:46:07;16.08;;;8.15;;
48596;SDS011;34382;43.160;24.148;2024-02-23T00:47:40;13.10;;;7.85;;
48596;SDS011;34382;43.160;24.148;2024-02-23T00:49:12;18.58;;;8.30;;
48596;SDS011;34382;43.160;24.148;2024-02-23T00:50:44;15.30;;;9.25;;
48596;SDS011;34382;43.160;24.148;2024-02-23T00:52:16;15.50;;;8.57;;
48596;SDS011;34382;43.160;24.148;2024-02-23T00:53:49;15.77;;;8.52;;
48596;SDS011;34382;43.160;24.148;2024-02-23T00:55:21;15.38;;;9.10;;
48596;SDS011;34382;43.160;24.148;2024-02-23T00:56:53;15.68;;;8.45;;
48596;SDS011;34382;43.160;24.148;2024-02-23T00:58:28;16.30;;;9.32;;
48596;SDS011;34382;43.160;24.148;2024-02-23T01:00:00;17.08;;;9.38;;
48596;SDS011;34382;43.160;24.148;2024-02-23T01:01:32;20.35;;;10.18;;
48596;SDS011;34382;43.160;24.148;2024-02-23T01:03:04;21.42;;;12.27;;
48596;SDS011;34382;43.160;24.148;2024-02-23T01:04:37;16.70;;;9.65;;
48596;SDS011;34382;43.160;24.148;2024-02-23T01:06:09;15.68;;;8.45;;
48596;SDS011;34382;43.160;24.148;2024-02-23T01:07:41;15.30;;;8.48;;
48596;SDS011;34382;43.160;24.148;2024-02-23T01:10:52;14.23;;;8.45;;
48596;SDS011;34382;43.160;24.148;2024-02-23T01:12:24;21.63;;;11.43;;
48596;SDS011;34382;43.160;24.148;2024-02-23T01:13:56;16.48;;;9.52;;
48596;SDS011;34382;43.160;24.148;2024-02-23T01:15:28;19.30;;;10.68;;
48596;SDS011;34382;43.160;24.148;2024-02-23T01:17:01;19.27;;;11.15;;
48596;SDS011;34382;43.160;24.148;2024-02-23T01:18:33;21.73;;;12.27;;
48596;SDS011;34382;43.160;24.148;2024-02-23T01:20:05;19.95;;;10.93;;
48596;SDS011;34382;43.160;24.148;2024-02-23T01:21:38;16.25;;;9.07;;
48596;SDS011;34382;43.160;24.148;2024-02-23T01:23:10;16.27;;;10.15;;
48596;SDS011;34382;43.160;24.148;2024-02-23T01:24:42;17.15;;;10.32;;
48596;SDS011;34382;43.160;24.148;2024-02-23T01:26:14;15.95;;;8.98;;
48596;SDS011;34382;43.160;24.148;2024-02-23T01:27:47;17.48;;;9.00;;
48596;SDS011;34382;43.160;24.148;2024-02-23T01:29:20;14.82;;;9.35;;
48596;SDS011;34382;43.160;24.148;2024-02-23T01:30:52;17.00;;;9.50;;
48596;SDS011;34382;43.160;24.148;2024-02-23T01:32:24;14.43;;;7.97;;
48596;SDS011;34382;43.160;24.148;2024-02-23T01:33:57;13.35;;;7.63;;
48596;SDS011;34382;43.160;24.148;2024-02-23T01:35:29;11.95;;;7.03;;
48596;SDS011;34382;43.160;24.148;2024-02-23T01:37:02;18.40;;;8.77;;
48596;SDS011;34382;43.160;24.148;2024-02-23T01:38:35;13.45;;;8.02;;
48596;SDS011;34382;43.160;24.148;2024-02-23T01:40:07;14.77;;;8.35;;
48596;SDS011;34382;43.160;24.148;2024-02-23T01:41:39;15.87;;;8.93;;
48596;SDS011;34382;43.160;24.148;2024-02-23T01:43:12;15.50;;;8.83;;
48596;SDS011;34382;43.160;24.148;2024-02-23T01:44:44;14.25;;;7.70;;
48596;SDS011;34382;43.160;24.148;2024-02-23T01:46:17;16.33;;;8.43;;
48596;SDS011;34382;43.160;24.148;2024-02-23T01:47:50;14.73;;;8.30;;
48596;SDS011;34382;43.160;24.148;2024-02-23T01:49:23;13.55;;;7.75;;
48596;SDS011;34382;43.160;24.148;2024-02-23T01:51:01;17.33;;;8.88;;
48596;SDS011;34382;43.160;24.148;2024-02-23T01:52:34;14.23;;;8.35;;
48596;SDS011;34382;43.160;24.148;2024-02-23T01:54:07;16.27;;;8.68;;
48596;SDS011;34382;43.160;24.148;2024-02-23T01:55:40;14.82;;;7.57;;
48596;SDS011;34382;43.160;24.148;2024-02-23T01:57:13;14.65;;;7.93;;
48596;SDS011;34382;43.160;24.148;2024-02-23T01:59:06;15.60;;;8.05;;
48596;SDS011;34382;43.160;24.148;2024-02-23T02:00:38;15.43;;;7.97;;
48596;SDS011;34382;43.160;24.148;2024-02-23T02:02:10;15.13;;;7.80;;
48596;SDS011;34382;43.160;24.148;2024-02-23T02:03:43;13.50;;;7.03;;
48596;SDS011;34382;43.160;24.148;2024-02-23T02:05:15;16.15;;;7.93;;
48596;SDS011;34382;43.160;24.148;2024-02-23T02:06:47;14.23;;;7.10;;
48596;SDS011;34382;43.160;24.148;2024-02-23T02:08:26;13.43;;;7.22;;
48596;SDS011;34382;43.160;24.148;2024-02-23T02:09:58;11.77;;;6.60;;
48596;SDS011;34382;43.160;24.148;2024-02-23T02:11:30;13.20;;;6.95;;
48596;SDS011;34382;43.160;24.148;2024-02-23T02:13:03;12.40;;;6.88;;
48596;SDS011;34382;43.160;24.148;2024-02-23T02:14:37;12.25;;;6.75;;
48596;SDS011;34382;43.160;24.148;2024-02-23T02:16:09;13.57;;;6.75;;
48596;SDS011;34382;43.160;24.148;2024-02-23T02:17:42;12.88;;;6.28;;
48596;SDS011;34382;43.160;24.148;2024-02-23T02:19:15;11.88;;;7.07;;
48596;SDS011;34382;43.160;24.148;2024-02-23T02:20:52;11.80;;;6.32;;
48596;SDS011;34382;43.160;24.148;2024-02-23T02:22:26;13.85;;;6.55;;
48596;SDS011;34382;43.160;24.148;2024-02-23T02:23:58;11.23;;;6.78;;
48596;SDS011;34382;43.160;24.148;2024-02-23T02:25:31;12.48;;;5.93;;
48596;SDS011;34382;43.160;24.148;2024-02-23T02:27:03;12.98;;;6.53;;
48596;SDS011;34382;43.160;24.148;2024-02-23T02:28:35;11.88;;;6.10;;
48596;SDS011;34382;43.160;24.148;2024-02-23T02:30:07;11.85;;;6.25;;
48596;SDS011;34382;43.160;24.148;2024-02-23T02:31:40;12.77;;;6.30;;
48596;SDS011;34382;43.160;24.148;2024-02-23T02:33:12;12.82;;;6.65;;
48596;SDS011;34382;43.160;24.148;2024-02-23T02:36:20;14.52;;;7.13;;
48596;SDS011;34382;43.160;24.148;2024-02-23T02:37:52;12.50;;;6.65;;
48596;SDS011;34382;43.160;24.148;2024-02-23T02:39:27;12.80;;;6.25;;
48596;SDS011;34382;43.160;24.148;2024-02-23T02:40:59;13.75;;;6.07;;
48596;SDS011;34382;43.160;24.148;2024-02-23T02:42:33;16.27;;;8.93;;
48596;SDS011;34382;43.160;24.148;2024-02-23T02:44:05;17.13;;;8.95;;
48596;SDS011;34382;43.160;24.148;2024-02-23T02:45:38;11.40;;;6.32;;
48596;SDS011;34382;43.160;24.148;2024-02-23T02:47:10;12.52;;;6.35;;
48596;SDS011;34382;43.160;24.148;2024-02-23T02:48:42;11.60;;;5.93;;
48596;SDS011;34382;43.160;24.148;2024-02-23T02:50:15;12.93;;;5.70;;
48596;SDS011;34382;43.160;24.148;2024-02-23T02:51:47;12.35;;;6.10;;
48596;SDS011;34382;43.160;24.148;2024-02-23T02:53:19;12.15;;;5.75;;
48596;SDS011;34382;43.160;24.148;2024-02-23T02:54:52;11.35;;;5.85;;
48596;SDS011;34382;43.160;24.148;2024-02-23T02:56:24;11.75;;;5.85;;
48596;SDS011;34382;43.160;24.148;2024-02-23T02:57:56;11.05;;;6.00;;
48596;SDS011;34382;43.160;24.148;2024-02-23T02:59:28;11.27;;;5.93;;
48596;SDS011;34382;43.160;24.148;2024-02-23T03:01:01;12.15;;;5.97;;
48596;SDS011;34382;43.160;24.148;2024-02-23T03:02:33;10.98;;;5.60;;
48596;SDS011;34382;43.160;24.148;2024-02-23T03:04:05;12.38;;;5.97;;
48596;SDS011;34382;43.160;24.148;2024-02-23T03:05:40;11.80;;;5.68;;
48596;SDS011;34382;43.160;24.148;2024-02-23T03:07:12;12.77;;;5.78;;
48596;SDS011;34382;43.160;24.148;2024-02-23T03:08:44;11.68;;;6.35;;
48596;SDS011;34382;43.160;24.148;2024-02-23T03:10:17;14.02;;;6.85;;
48596;SDS011;34382;43.160;24.148;2024-02-23T03:11:49;11.00;;;6.45;;
48596;SDS011;34382;43.160;24.148;2024-02-23T03:13:21;11.48;;;6.68;;
48596;SDS011;34382;43.160;24.148;2024-02-23T03:14:53;14.82;;;6.90;;
48596;SDS011;34382;43.160;24.148;2024-02-23T03:16:27;16.08;;;6.75;;
48596;SDS011;34382;43.160;24.148;2024-02-23T03:18:02;13.25;;;7.22;;
48596;SDS011;34382;43.160;24.148;2024-02-23T03:19:34;12.70;;;6.45;;
48596;SDS011;34382;43.160;24.148;2024-02-23T03:21:07;11.30;;;6.10;;
48596;SDS011;34382;43.160;24.148;2024-02-23T03:22:41;13.75;;;6.65;;
48596;SDS011;34382;43.160;24.148;2024-02-23T03:24:13;12.00;;;6.40;;
48596;SDS011;34382;43.160;24.148;2024-02-23T03:25:45;11.88;;;5.90;;
48596;SDS011;34382;43.160;24.148;2024-02-23T03:27:17;16.15;;;6.97;;
48596;SDS011;34382;43.160;24.148;2024-02-23T03:28:51;14.73;;;7.43;;
48596;SDS011;34382;43.160;24.148;2024-02-23T03:30:23;12.48;;;6.22;;
48596;SDS011;34382;43.160;24.148;2024-02-23T03:31:55;13.18;;;5.97;;
48596;SDS011;34382;43.160;24.148;2024-02-23T03:33:28;12.65;;;6.25;;
48596;SDS011;34382;43.160;24.148;2024-02-23T03:35:00;13.38;;;6.90;;
48596;SDS011;34382;43.160;24.148;2024-02-23T03:36:32;11.07;;;6.15;;
48596;SDS011;34382;43.160;24.148;2024-02-23T03:38:05;10.95;;;6.38;;
48596;SDS011;34382;43.160;24.148;2024-02-23T03:39:37;11.43;;;6.10;;
48596;SDS011;34382;43.160;24.148;2024-02-23T03:41:10;13.13;;;6.47;;
48596;SDS011;34382;43.160;24.148;2024-02-23T03:42:42;10.90;;;6.47;;
48596;SDS011;34382;43.160;24.148;2024-02-23T03:44:14;12.13;;;6.55;;
48596;SDS011;34382;43.160;24.148;2024-02-23T03:45:46;14.35;;;7.30;;
48596;SDS011;34382;43.160;24.148;2024-02-23T03:47:19;10.60;;;5.90;;
48596;SDS011;34382;43.160;24.148;2024-02-23T03:48:51;13.18;;;6.35;;
48596;SDS011;34382;43.160;24.148;2024-02-23T03:50:24;13.05;;;6.38;;
48596;SDS011;34382;43.160;24.148;2024-02-23T03:51:56;15.48;;;8.40;;
48596;SDS011;34382;43.160;24.148;2024-02-23T03:53:29;11.18;;;6.47;;
48596;SDS011;34382;43.160;24.148;2024-02-23T03:55:01;13.40;;;7.35;;
48596;SDS011;34382;43.160;24.148;2024-02-23T03:56:41;12.68;;;5.95;;
48596;SDS011;34382;43.160;24.148;2024-02-23T03:58:14;12.00;;;6.00;;
48596;SDS011;34382;43.160;24.148;2024-02-23T03:59:52;11.18;;;6.35;;
48596;SDS011;34382;43.160;24.148;2024-02-23T04:01:25;14.25;;;6.95;;
48596;SDS011;34382;43.160;24.148;2024-02-23T04:02:57;12.02;;;7.10;;
48596;SDS011;34382;43.160;24.148;2024-02-23T04:04:30;11.88;;;6.50;;
48596;SDS011;34382;43.160;24.148;2024-02-23T04:06:02;13.07;;;6.38;;
48596;SDS011;34382;43.160;24.148;2024-02-23T04:07:34;14.23;;;6.55;;
48596;SDS011;34382;43.160;24.148;2024-02-23T04:09:07;14.68;;;7.03;;
48596;SDS011;34382;43.160;24.148;2024-02-23T04:10:40;12.90;;;6.28;;
48596;SDS011;34382;43.160;24.148;2024-02-23T04:12:13;14.13;;;6.50;;
48596;SDS011;34382;43.160;24.148;2024-02-23T04:13:45;12.27;;;6.05;;
48596;SDS011;34382;43.160;24.148;2024-02-23T04:15:20;12.13;;;6.20;;
48596;SDS011;34382;43.160;24.148;2024-02-23T04:16:53;12.13;;;4.93;;
48596;SDS011;34382;43.160;24.148;2024-02-23T04:18:25;11.43;;;5.72;;
48596;SDS011;34382;43.160;24.148;2024-02-23T04:19:58;10.85;;;4.97;;
48596;SDS011;34382;43.160;24.148;2024-02-23T04:21:32;12.48;;;5.97;;
48596;SDS011;34382;43.160;24.148;2024-02-23T04:23:04;12.75;;;5.22;;
48596;SDS011;34382;43.160;24.148;2024-02-23T04:24:40;12.60;;;5.55;;
48596;SDS011;34382;43.160;24.148;2024-02-23T04:26:13;11.55;;;4.40;;
48596;SDS011;34382;43.160;24.148;2024-02-23T04:27:45;12.32;;;5.38;;
48596;SDS011;34382;43.160;24.148;2024-02-23T04:29:17;12.00;;;5.18;;
48596;SDS011;34382;43.160;24.148;2024-02-23T04:30:50;9.80;;;5.70;;
48596;SDS011;34382;43.160;24.148;2024-02-23T04:32:22;10.60;;;5.72;;
48596;SDS011;34382;43.160;24.148;2024-02-23T04:33:55;11.43;;;5.63;;
48596;SDS011;34382;43.160;24.148;2024-02-23T04:35:27;12.77;;;6.07;;
48596;SDS011;34382;43.160;24.148;2024-02-23T04:36:59;10.27;;;5.28;;
48596;SDS011;34382;43.160;24.148;2024-02-23T04:40:12;10.85;;;5.32;;
48596;SDS011;34382;43.160;24.148;2024-02-23T04:41:44;11.48;;;5.47;;
48596;SDS011;34382;43.160;24.148;2024-02-23T04:43:16;14.25;;;5.82;;
48596;SDS011;34382;43.160;24.148;2024-02-23T04:44:48;13.13;;;4.85;;
48596;SDS011;34382;43.160;24.148;2024-02-23T04:46:21;12.60;;;5.05;;
48596;SDS011;34382;43.160;24.148;2024-02-23T04:47:56;14.07;;;6.82;;
48596;SDS011;34382;43.160;24.148;2024-02-23T04:49:28;13.88;;;6.57;;
48596;SDS011;34382;43.160;24.148;2024-02-23T04:51:00;30.58;;;11.75;;
48596;SDS011;34382;43.160;24.148;2024-02-23T04:52:32;25.23;;;10.30;;
48596;SDS011;34382;43.160;24.148;2024-02-23T04:54:05;25.23;;;9.55;;
48596;SDS011;34382;43.160;24.148;2024-02-23T04:55:38;17.55;;;6.93;;
48596;SDS011;34382;43.160;24.148;2024-02-23T04:57:10;13.38;;;6.00;;
48596;SDS011;34382;43.160;24.148;2024-02-23T04:58:45;14.55;;;6.30;;
48596;SDS011;34382;43.160;24.148;2024-02-23T05:00:17;12.05;;;5.38;;
48596;SDS011;34382;43.160;24.148;2024-02-23T05:01:50;11.82;;;5.45;;
48596;SDS011;34382;43.160;24.148;2024-02-23T05:03:22;13.77;;;6.18;;
48596;SDS011;34382;43.160;24.148;2024-02-23T05:04:54;12.00;;;5.57;;
48596;SDS011;34382;43.160;24.148;2024-02-23T05:06:26;15.38;;;6.35;;
48596;SDS011;34382;43.160;24.148;2024-02-23T05:07:59;12.00;;;4.97;;
48596;SDS011;34382;43.160;24.148;2024-02-23T05:09:31;9.50;;;4.93;;
48596;SDS011;34382;43.160;24.148;2024-02-23T05:11:04;9.57;;;4.53;;
48596;SDS011;34382;43.160;24.148;2024-02-23T05:12:36;11.88;;;5.35;;
48596;SDS011;34382;43.160;24.148;2024-02-23T05:15:41;11.77;;;5.78;;
48596;SDS011;34382;43.160;24.148;2024-02-23T05:17:13;15.18;;;8.38;;
48596;SDS011;34382;43.160;24.148;2024-02-23T05:18:45;11.85;;;4.93;;
48596;SDS011;34382;43.160;24.148;2024-02-23T05:20:18;12.57;;;7.03;;
48596;SDS011;34382;43.160;24.148;2024-02-23T05:21:50;14.77;;;6.13;;
48596;SDS011;34382;43.160;24.148;2024-02-23T05:23:22;11.85;;;5.78;;
48596;SDS011;34382;43.160;24.148;2024-02-23T05:24:55;11.85;;;6.50;;
48596;SDS011;34382;43.160;24.148;2024-02-23T05:26:27;11.85;;;5.65;;
48596;SDS011;34382;43.160;24.148;2024-02-23T05:27:59;10.95;;;5.45;;
48596;SDS011;34382;43.160;24.148;2024-02-23T05:29:31;13.70;;;5.95;;
48596;SDS011;34382;43.160;24.148;2024-02-23T05:31:04;12.70;;;6.10;;
48596;SDS011;34382;43.160;24.148;2024-02-23T05:32:36;11.63;;;5.80;;
48596;SDS011;34382;43.160;24.148;2024-02-23T05:34:09;19.10;;;5.40;;
48596;SDS011;34382;43.160;24.148;2024-02-23T05:35:41;11.93;;;5.80;;
48596;SDS011;34382;43.160;24.148;2024-02-23T05:37:13;17.35;;;8.80;;
48596;SDS011;34382;43.160;24.148;2024-02-23T05:38:46;13.53;;;6.37;;
48596;SDS011;34382;43.160;24.148;2024-02-23T05:40:18;12.15;;;6.53;;
48596;SDS011;34382;43.160;24.148;2024-02-23T05:41:50;13.57;;;6.63;;
48596;SDS011;34382;43.160;24.148;2024-02-23T05:43:23;11.48;;;5.40;;
48596;SDS011;34382;43.160;24.148;2024-02-23T05:44:55;10.30;;;5.30;;
48596;SDS011;34382;43.160;24.148;2024-02-23T05:46:27;10.20;;;5.18;;
48596;SDS011;34382;43.160;24.148;2024-02-23T05:48:00;10.55;;;5.10;;
48596;SDS011;34382;43.160;24.148;2024-02-23T05:49:32;11.63;;;5.85;;
48596;SDS011;34382;43.160;24.148;2024-02-23T05:51:06;13.65;;;6.18;;
48596;SDS011;34382;43.160;24.148;2024-02-23T05:52:39;11.93;;;5.43;;
48596;SDS011;34382;43.160;24.148;2024-02-23T05:54:11;15.13;;;6.80;;
48596;SDS011;34382;43.160;24.148;2024-02-23T05:55:43;15.68;;;6.53;;
48596;SDS011;34382;43.160;24.148;2024-02-23T05:57:16;15.82;;;6.82;;
48596;SDS011;34382;43.160;24.148;2024-02-23T05:58:48;14.88;;;6.97;;
48596;SDS011;34382;43.160;24.148;2024-02-23T06:00:20;12.85;;;8.07;;
48596;SDS011;34382;43.160;24.148;2024-02-23T06:01:53;18.50;;;8.95;;
48596;SDS011;34382;43.160;24.148;2024-02-23T06:03:29;15.57;;;8.68;;
48596;SDS011;34382;43.160;24.148;2024-02-23T06:05:01;15.10;;;9.38;;
48596;SDS011;34382;43.160;24.148;2024-02-23T06:06:33;20.53;;;10.03;;
48596;SDS011;34382;43.160;24.148;2024-02-23T06:08:06;22.13;;;9.55;;
48596;SDS011;34382;43.160;24.148;2024-02-23T06:09:39;13.90;;;7.00;;
48596;SDS011;34382;43.160;24.148;2024-02-23T06:11:11;13.02;;;6.20;;
48596;SDS011;34382;43.160;24.148;2024-02-23T06:12:43;14.20;;;7.93;;
48596;SDS011;34382;43.160;24.148;2024-02-23T06:14:16;13.65;;;7.47;;
48596;SDS011;34382;43.160;24.148;2024-02-23T06:15:48;13.70;;;7.25;;
48596;SDS011;34382;43.160;24.148;2024-02-23T06:17:20;15.85;;;8.95;;
48596;SDS011;34382;43.160;24.148;2024-02-23T06:18:53;19.05;;;9.13;;
48596;SDS011;34382;43.160;24.148;2024-02-23T06:20:25;14.98;;;9.13;;
48596;SDS011;34382;43.160;24.148;2024-02-23T06:21:57;17.30;;;8.77;;
48596;SDS011;34382;43.160;24.148;2024-02-23T06:23:30;15.68;;;8.85;;
48596;SDS011;34382;43.160;24.148;2024-02-23T06:25:02;15.80;;;8.73;;
48596;SDS011;34382;43.160;24.148;2024-02-23T06:26:34;22.67;;;15.32;;
48596;SDS011;34382;43.160;24.148;2024-02-23T06:28:07;17.20;;;9.90;;
48596;SDS011;34382;43.160;24.148;2024-02-23T06:29:39;18.42;;;10.15;;
48596;SDS011;34382;43.160;24.148;2024-02-23T06:31:12;18.35;;;11.00;;
48596;SDS011;34382;43.160;24.148;2024-02-23T06:32:44;18.98;;;11.23;;
48596;SDS011;34382;43.160;24.148;2024-02-23T06:34:18;19.45;;;10.75;;
48596;SDS011;34382;43.160;24.148;2024-02-23T06:35:50;18.55;;;10.30;;
48596;SDS011;34382;43.160;24.148;2024-02-23T06:37:24;17.88;;;10.43;;
48596;SDS011;34382;43.160;24.148;2024-02-23T06:38:56;18.13;;;10.27;;
48596;SDS011;34382;43.160;24.148;2024-02-23T06:40:28;17.90;;;10.38;;
48596;SDS011;34382;43.160;24.148;2024-02-23T06:42:16;19.20;;;10.38;;
48596;SDS011;34382;43.160;24.148;2024-02-23T06:43:48;16.73;;;8.95;;
48596;SDS011;34382;43.160;24.148;2024-02-23T06:45:21;17.35;;;9.30;;
48596;SDS011;34382;43.160;24.148;2024-02-23T06:46:57;17.67;;;10.38;;
48596;SDS011;34382;43.160;24.148;2024-02-23T06:48:29;18.48;;;10.75;;
48596;SDS011;34382;43.160;24.148;2024-02-23T06:50:02;18.55;;;9.90;;
48596;SDS011;34382;43.160;24.148;2024-02-23T06:51:36;22.40;;;10.90;;
48596;SDS011;34382;43.160;24.148;2024-02-23T06:53:09;21.35;;;11.57;;
48596;SDS011;34382;43.160;24.148;2024-02-23T06:54:42;23.77;;;12.30;;
48596;SDS011;34382;43.160;24.148;2024-02-23T06:56:14;21.98;;;11.65;;
48596;SDS011;34382;43.160;24.148;2024-02-23T06:57:47;20.77;;;11.85;;
48596;SDS011;34382;43.160;24.148;2024-02-23T06:59:19;16.58;;;8.45;;
48596;SDS011;34382;43.160;24.148;2024-02-23T07:00:52;14.48;;;7.68;;
48596;SDS011;34382;43.160;24.148;2024-02-23T07:02:24;14.05;;;8.18;;
48596;SDS011;34382;43.160;24.148;2024-02-23T07:03:56;15.60;;;7.65;;
48596;SDS011;34382;43.160;24.148;2024-02-23T07:05:29;14.82;;;7.65;;
48596;SDS011;34382;43.160;24.148;2024-02-23T07:07:01;15.63;;;7.28;;
48596;SDS011;34382;43.160;24.148;2024-02-23T07:08:40;14.77;;;7.40;;
48596;SDS011;34382;43.160;24.148;2024-02-23T07:11:45;13.57;;;7.68;;
48596;SDS011;34382;43.160;24.148;2024-02-23T07:13:17;16.52;;;7.72;;
48596;SDS011;34382;43.160;24.148;2024-02-23T07:14:51;15.60;;;7.95;;
48596;SDS011;34382;43.160;24.148;2024-02-23T07:16:23;17.42;;;8.38;;
48596;SDS011;34382;43.160;24.148;2024-02-23T07:17:55;16.92;;;9.13;;
48596;SDS011;34382;43.160;24.148;2024-02-23T07:19:28;19.10;;;9.88;;
48596;SDS011;34382;43.160;24.148;2024-02-23T07:21:00;18.92;;;9.27;;
48596;SDS011;34382;43.160;24.148;2024-02-23T07:22:33;14.63;;;9.43;;
48596;SDS011;34382;43.160;24.148;2024-02-23T07:24:06;19.10;;;10.23;;
48596;SDS011;34382;43.160;24.148;2024-02-23T07:25:38;18.42;;;11.00;;
48596;SDS011;34382;43.160;24.148;2024-02-23T07:27:11;16.00;;;9.75;;
48596;SDS011;34382;43.160;24.148;2024-02-23T07:28:43;20.20;;;10.98;;
48596;SDS011;34382;43.160;24.148;2024-02-23T07:30:15;18.27;;;10.68;;
48596;SDS011;34382;43.160;24.148;2024-02-23T07:31:49;17.25;;;10.32;;
48596;SDS011;34382;43.160;24.148;2024-02-23T07:33:21;18.00;;;10.20;;
48596;SDS011;34382;43.160;24.148;2024-02-23T07:34:54;16.90;;;10.35;;
48596;SDS011;34382;43.160;24.148;2024-02-23T07:36:26;19.55;;;10.93;;
48596;SDS011;34382;43.160;24.148;2024-02-23T07:39:37;18.30;;;10.25;;
48596;SDS011;34382;43.160;24.148;2024-02-23T07:41:10;12.93;;;7.80;;
48596;SDS011;34382;43.160;24.148;2024-02-23T07:42:43;12.93;;;7.88;;
48596;SDS011;34382;43.160;24.148;2024-02-23T07:44:15;18.00;;;9.38;;
48596;SDS011;34382;43.160;24.148;2024-02-23T07:45:47;14.30;;;8.20;;
48596;SDS011;34382;43.160;24.148;2024-02-23T07:47:20;12.63;;;7.28;;
48596;SDS011;34382;43.160;24.148;2024-02-23T07:48:52;13.00;;;7.07;;
48596;SDS011;34382;43.160;24.148;2024-02-23T07:50:24;17.42;;;8.13;;
48596;SDS011;34382;43.160;24.148;2024-02-23T07:51:57;17.30;;;9.25;;
48596;SDS011;34382;43.160;24.148;2024-02-23T07:53:30;17.20;;;9.05;;
48596;SDS011;34382;43.160;24.148;2024-02-23T07:56:37;21.42;;;12.50;;
48596;SDS011;34382;43.160;24.148;2024-02-23T07:58:09;16.75;;;9.48;;
48596;SDS011;34382;43.160;24.148;2024-02-23T07:59:41;11.15;;;6.30;;
48596;SDS011;34382;43.160;24.148;2024-02-23T08:01:14;9.65;;;4.75;;
48596;SDS011;34382;43.160;24.148;2024-02-23T08:02:46;9.98;;;4.38;;
48596;SDS011;34382;43.160;24.148;2024-02-23T08:04:19;7.72;;;3.95;;
48596;SDS011;34382;43.160;24.148;2024-02-23T08:05:51;8.00;;;3.60;;
48596;SDS011;34382;43.160;24.148;2024-02-23T08:07:23;8.48;;;3.53;;
48596;SDS011;34382;43.160;24.148;2024-02-23T08:08:57;7.72;;;3.35;;
48596;SDS011;34382;43.160;24.148;2024-02-23T08:10:29;10.80;;;3.75;;
48596;SDS011;34382;43.160;24.148;2024-02-23T08:12:02;7.80;;;3.55;;
48596;SDS011;34382;43.160;24.148;2024-02-23T08:13:34;7.30;;;3.33;;
48596;SDS011;34382;43.160;24.148;2024-02-23T08:15:06;8.82;;;3.35;;
48596;SDS011;34382;43.160;24.148;2024-02-23T08:16:39;7.82;;;3.30;;
48596;SDS011;34382;43.160;24.148;2024-02-23T08:18:11;7.78;;;3.55;;
48596;SDS011;34382;43.160;24.148;2024-02-23T08:19:44;7.45;;;3.30;;
48596;SDS011;34382;43.160;24.148;2024-02-23T08:21:17;7.53;;;3.08;;
48596;SDS011;34382;43.160;24.148;2024-02-23T08:22:50;7.10;;;3.45;;
48596;SDS011;34382;43.160;24.148;2024-02-23T08:24:23;8.57;;;3.33;;
48596;SDS011;34382;43.160;24.148;2024-02-23T08:25:55;6.50;;;2.78;;
48596;SDS011;34382;43.160;24.148;2024-02-23T08:27:28;7.53;;;3.10;;
48596;SDS011;34382;43.160;24.148;2024-02-23T08:29:00;7.40;;;3.47;;
48596;SDS011;34382;43.160;24.148;2024-02-23T08:30:33;7.65;;;3.08;;
48596;SDS011;34382;43.160;24.148;2024-02-23T08:32:05;10.32;;;5.13;;
48596;SDS011;34382;43.160;24.148;2024-02-23T08:33:38;7.55;;;3.45;;
48596;SDS011;34382;43.160;24.148;2024-02-23T08:35:10;8.23;;;3.58;;
48596;SDS011;34382;43.160;24.148;2024-02-23T08:36:43;7.60;;;3.65;;
48596;SDS011;34382;43.160;24.148;2024-02-23T08:38:16;10.60;;;4.18;;
48596;SDS011;34382;43.160;24.148;2024-02-23T08:39:48;7.13;;;3.58;;
48596;SDS011;34382;43.160;24.148;2024-02-23T08:41:20;8.20;;;3.47;;
48596;SDS011;34382;43.160;24.148;2024-02-23T08:42:52;7.22;;;3.47;;
48596;SDS011;34382;43.160;24.148;2024-02-23T08:44:24;8.27;;;3.15;;
48596;SDS011;34382;43.160;24.148;2024-02-23T08:45:57;6.38;;;3.10;;
48596;SDS011;34382;43.160;24.148;2024-02-23T08:47:35;6.72;;;3.25;;
48596;SDS011;34382;43.160;24.148;2024-02-23T08:49:08;6.28;;;2.80;;
48596;SDS011;34382;43.160;24.148;2024-02-23T08:50:40;6.25;;;2.97;;
48596;SDS011;34382;43.160;24.148;2024-02-23T08:52:13;5.55;;;2.50;;
48596;SDS011;34382;43.160;24.148;2024-02-23T08:53:45;5.75;;;2.50;;
48596;SDS011;34382;43.160;24.148;2024-02-23T08:55:17;9.00;;;2.90;;
48596;SDS011;34382;43.160;24.148;2024-02-23T08:56:50;6.93;;;2.70;;
48596;SDS011;34382;43.160;24.148;2024-02-23T08:58:22;7.75;;;2.90;;
48596;SDS011;34382;43.160;24.148;2024-02-23T08:59:55;6.38;;;2.70;;
48596;SDS011;34382;43.160;24.148;2024-02-23T09:01:29;7.00;;;2.90;;
48596;SDS011;34382;43.160;24.148;2024-02-23T09:03:02;8.07;;;3.20;;
48596;SDS011;34382;43.160;24.148;2024-02-23T09:04:35;5.85;;;2.72;;
48596;SDS011;34382;43.160;24.148;2024-02-23T09:06:07;6.47;;;2.70;;
48596;SDS011;34382;43.160;24.148;2024-02-23T09:07:40;8.73;;;3.33;;
48596;SDS011;34382;43.160;24.148;2024-02-23T09:09:13;6.07;;;2.70;;
48596;SDS011;34382;43.160;24.148;2024-02-23T09:10:45;9.38;;;3.10;;
48596;SDS011;34382;43.160;24.148;2024-02-23T09:12:18;6.03;;;2.60;;
48596;SDS011;34382;43.160;24.148;2024-02-23T09:13:50;6.65;;;2.85;;